Time;durP1;ratioP1;P1;durP2;ratioP2;P2;SDS_P1;SDS_P2;PMS_P1;PMS_P2;Temp;Humidity;BMP_temperature;BMP_pressure;BME280_temperature;BME280_humidity;BME280_pressure;Samples;Min_cycle;Max_cycle;Signal;HPM_P1;HPM_P2
2021/12/15 00:02:20;;;;;;;17.20;14.10;;;10.20;89.20;;;;;;5078245;28;20481;-45
2021/12/15 00:04:50;;;;;;;17.60;14.13;;;10.20;89.40;;;;;;5077704;28;20176;-45
2021/12/15 00:07:17;;;;;;;21.33;15.93;;;10.10;89.60;;;;;;5078201;28;20438;-45
2021/12/15 00:09:43;;;;;;;19.67;15.00;;;10.10;89.80;;;;;;5077457;28;20466;-45
2021/12/15 00:12:13;;;;;;;19.77;15.43;;;10.10;90.00;;;;;;5077093;28;20894;-46
2021/12/15 00:14:41;;;;;;;20.43;15.53;;;10.10;90.00;;;;;;5077465;28;20174;-44
2021/12/15 00:17:07;;;;;;;18.90;14.93;;;10.00;90.10;;;;;;5076979;28;20439;-45
2021/12/15 00:19:32;;;;;;;20.20;15.43;;;9.90;90.90;;;;;;5078133;28;20428;-45
2021/12/15 00:21:59;;;;;;;19.20;14.83;;;9.90;91.00;;;;;;5076949;28;20505;-45
2021/12/15 00:24:25;;;;;;;19.73;14.87;;;9.80;91.10;;;;;;5077412;28;20188;-44
2021/12/15 00:26:54;;;;;;;19.53;15.43;;;9.90;91.20;;;;;;5077983;28;20427;-45
2021/12/15 00:29:23;;;;;;;18.83;15.37;;;9.80;91.30;;;;;;5077885;28;20502;-45
2021/12/15 00:31:50;;;;;;;19.27;15.50;;;9.80;91.30;;;;;;5078121;28;20501;-45
2021/12/15 00:34:16;;;;;;;19.47;15.90;;;9.80;91.40;;;;;;5077658;28;20407;-45
2021/12/15 00:36:47;;;;;;;16.40;14.30;;;9.80;91.50;;;;;;5093600;28;20422;-45
2021/12/15 00:39:17;;;;;;;19.93;15.20;;;9.80;91.50;;;;;;5077452;28;20469;-45
2021/12/15 00:41:43;;;;;;;20.67;15.40;;;9.70;91.60;;;;;;5078160;28;20415;-44
2021/12/15 00:44:09;;;;;;;19.63;15.10;;;9.70;91.60;;;;;;5077894;28;20423;-44
2021/12/15 00:46:35;;;;;;;21.10;15.90;;;9.70;91.70;;;;;;5077647;28;20575;-45
2021/12/15 00:49:02;;;;;;;19.90;15.50;;;9.70;91.70;;;;;;5077760;28;20528;-45
2021/12/15 00:51:28;;;;;;;19.43;15.30;;;9.70;91.80;;;;;;5076567;28;20424;-45
2021/12/15 00:53:55;;;;;;;21.40;15.97;;;9.70;91.80;;;;;;5077679;28;20404;-46
2021/12/15 00:56:20;;;;;;;22.53;17.17;;;9.60;91.80;;;;;;5077863;28;20445;-45
2021/12/15 00:58:46;;;;;;;22.30;16.20;;;9.60;91.90;;;;;;5077825;28;20410;-45
2021/12/15 01:01:12;;;;;;;20.30;15.10;;;9.60;91.90;;;;;;5076771;28;20350;-45
2021/12/15 01:03:38;;;;;;;20.13;15.40;;;9.60;91.90;;;;;;5077442;28;20182;-44
2021/12/15 01:06:08;;;;;;;19.87;16.27;;;9.60;92.00;;;;;;5077633;28;20438;-45
2021/12/15 01:08:40;;;;;;;21.77;16.10;;;9.60;92.10;;;;;;5077412;28;20290;-45
2021/12/15 01:11:22;;;;;;;20.73;15.83;;;9.50;92.10;;;;;;5076495;28;20507;-44
2021/12/15 01:22:30;;;;;;;20.17;16.27;;;9.50;92.20;;;;;;5076233;28;20741;-45
2021/12/15 01:25:00;;;;;;;22.17;17.20;;;9.50;92.30;;;;;;5079761;28;20438;-45
2021/12/15 01:27:27;;;;;;;21.90;16.60;;;9.50;92.30;;;;;;5079969;28;20536;-45
2021/12/15 01:29:52;;;;;;;25.10;17.70;;;9.50;92.40;;;;;;5079413;28;20524;-45
2021/12/15 01:32:19;;;;;;;24.60;17.20;;;9.40;92.40;;;;;;5080732;28;20829;-45
2021/12/15 01:34:45;;;;;;;21.73;16.77;;;9.40;92.40;;;;;;5081203;28;20473;-45
2021/12/15 01:37:12;;;;;;;25.17;17.03;;;9.40;92.80;;;;;;5081309;28;20695;-45
2021/12/15 01:39:38;;;;;;;21.50;15.23;;;9.40;92.50;;;;;;5080753;28;20433;-45
2021/12/15 01:42:05;;;;;;;20.40;15.47;;;9.40;92.50;;;;;;5080842;28;20479;-44
2021/12/15 01:47:01;;;;;;;21.43;14.67;;;9.40;92.60;;;;;;5079895;28;20468;-45
2021/12/15 01:49:32;;;;;;;20.70;15.47;;;9.40;92.60;;;;;;5079747;28;20455;-45
2021/12/15 01:52:03;;;;;;;19.60;14.90;;;9.30;92.60;;;;;;5081210;28;20451;-45
2021/12/15 01:54:29;;;;;;;19.80;14.43;;;9.30;92.60;;;;;;5080587;28;20431;-45
2021/12/15 01:56:55;;;;;;;19.77;14.23;;;9.30;92.70;;;;;;5080787;28;20484;-45
2021/12/15 01:59:23;;;;;;;18.57;14.50;;;9.30;92.70;;;;;;5080370;28;20442;-45
2021/12/15 02:01:50;;;;;;;18.27;13.20;;;9.30;92.70;;;;;;5079995;28;20415;-45
2021/12/15 02:04:18;;;;;;;16.33;13.17;;;9.30;92.70;;;;;;5079666;28;20411;-45
2021/12/15 02:06:44;;;;;;;15.40;13.00;;;9.30;92.70;;;;;;5080585;28;20432;-45
2021/12/15 02:09:21;;;;;;;16.87;12.70;;;9.20;92.70;;;;;;5079904;28;20750;-46
2021/12/15 02:11:47;;;;;;;16.43;13.43;;;9.20;92.70;;;;;;5080391;28;20419;-45
2021/12/15 02:14:12;;;;;;;15.90;12.37;;;9.20;92.70;;;;;;5079928;28;20706;-45
2021/12/15 02:16:38;;;;;;;18.03;13.73;;;9.20;92.70;;;;;;5080013;28;20443;-45
2021/12/15 02:19:04;;;;;;;17.57;13.60;;;9.20;92.70;;;;;;5079265;28;20239;-45
2021/12/15 02:21:30;;;;;;;16.03;12.37;;;9.20;93.00;;;;;;5080119;28;20268;-45
2021/12/15 02:23:58;;;;;;;15.80;13.23;;;9.20;92.70;;;;;;5079307;28;20461;-45
2021/12/15 02:26:27;;;;;;;17.93;12.43;;;9.10;92.70;;;;;;5080007;28;20648;-45
2021/12/15 02:28:59;;;;;;;15.53;12.43;;;9.10;92.70;;;;;;5079969;28;20480;-45
2021/12/15 02:31:52;;;;;;;16.20;13.10;;;9.10;92.80;;;;;;5079966;28;20533;-45
2021/12/15 02:39:32;;;;;;;17.67;12.40;;;9.00;92.90;;;;;;5079890;28;20431;-45
2021/12/15 02:41:57;;;;;;;16.80;13.43;;;9.00;93.00;;;;;;5079139;28;20426;-45
2021/12/15 02:44:24;;;;;;;16.13;12.43;;;9.00;93.00;;;;;;5079679;28;20696;-45
2021/12/15 02:46:51;;;;;;;14.60;12.27;;;9.00;93.00;;;;;;5079825;28;20189;-45
2021/12/15 02:49:19;;;;;;;17.03;12.60;;;9.00;93.00;;;;;;5079454;28;20498;-45
2021/12/15 02:51:47;;;;;;;15.20;12.30;;;9.00;93.00;;;;;;5079788;28;20824;-44
2021/12/15 02:54:14;;;;;;;15.53;12.53;;;9.00;93.10;;;;;;5079378;28;20441;-45
2021/12/15 02:56:42;;;;;;;15.30;12.10;;;9.00;93.10;;;;;;5079660;28;20748;-45
2021/12/15 02:59:10;;;;;;;16.50;12.90;;;9.00;93.10;;;;;;5079301;28;20441;-46
2021/12/15 03:02:11;;;;;;;14.23;11.47;;;9.00;93.10;;;;;;5079412;28;20451;-45
2021/12/15 03:07:25;;;;;;;15.37;12.00;;;9.00;93.10;;;;;;5078991;28;20408;-45
2021/12/15 03:15:35;;;;;;;13.27;11.63;;;8.90;93.20;;;;;;5078798;28;20496;-45
2021/12/15 03:18:19;;;;;;;12.20;10.90;;;8.90;93.20;;;;;;5078466;28;20435;-45
2021/12/15 03:20:59;;;;;;;12.63;10.67;;;8.90;93.20;;;;;;5079156;28;20423;-45
2021/12/15 03:23:40;;;;;;;13.53;10.43;;;8.90;93.20;;;;;;5078848;28;20857;-45
2021/12/15 03:26:07;;;;;;;12.70;9.87;;;8.90;93.20;;;;;;5078758;28;20419;-45
2021/12/15 03:34:26;;;;;;;10.57;9.47;;;8.90;93.20;;;;;;5078568;28;20433;-45
2021/12/15 03:39:26;;;;;;;10.70;8.90;;;8.80;93.20;;;;;;5078525;28;20901;-45
2021/12/15 03:41:59;;;;;;;10.93;8.70;;;8.80;93.50;;;;;;5078313;28;20410;-45
2021/12/15 03:44:26;;;;;;;10.70;8.93;;;8.80;93.20;;;;;;5078581;28;20411;-45
2021/12/15 03:46:52;;;;;;;9.67;8.43;;;8.80;93.10;;;;;;5077586;28;20848;-45
2021/12/15 03:49:17;;;;;;;11.93;9.10;;;8.80;93.00;;;;;;5076768;28;20467;-45
2021/12/15 03:51:43;;;;;;;11.53;9.20;;;8.80;93.00;;;;;;5076888;28;20415;-43
2021/12/15 03:54:09;;;;;;;8.00;7.20;;;8.80;93.10;;;;;;5077119;28;20173;-43
2021/12/15 03:56:40;;;;;;;8.10;7.30;;;8.70;93.00;;;;;;5076842;28;20180;-44
2021/12/15 03:59:06;;;;;;;9.90;8.27;;;8.70;93.00;;;;;;5077307;28;20177;-43
2021/12/15 04:01:32;;;;;;;10.27;8.20;;;8.70;93.00;;;;;;5077949;28;20427;-44
2021/12/15 04:03:58;;;;;;;9.03;7.70;;;8.70;93.00;;;;;;5077058;28;20415;-45
2021/12/15 04:06:30;;;;;;;8.40;7.40;;;8.70;93.10;;;;;;5077980;28;20269;-45
2021/12/15 04:08:57;;;;;;;9.57;7.87;;;8.70;93.10;;;;;;5078252;28;20219;-45
2021/12/15 04:11:25;;;;;;;8.07;7.23;;;8.70;93.10;;;;;;5078308;28;20435;-45
2021/12/15 04:13:52;;;;;;;9.73;8.20;;;8.70;93.10;;;;;;5077986;28;20416;-45
2021/12/15 04:18:57;;;;;;;9.40;7.83;;;8.70;93.10;;;;;;5076834;28;20490;-45
2021/12/15 04:21:23;;;;;;;8.80;7.13;;;8.70;93.10;;;;;;5076490;28;20761;-45
2021/12/15 04:23:59;;;;;;;9.20;8.23;;;8.60;93.10;;;;;;5076463;28;20436;-45
2021/12/15 04:26:25;;;;;;;9.00;7.67;;;8.60;93.20;;;;;;5076971;28;20254;-43
2021/12/15 04:28:52;;;;;;;8.30;7.40;;;8.60;93.20;;;;;;5075868;28;20570;-45
2021/12/15 04:31:23;;;;;;;9.40;7.67;;;8.60;93.20;;;;;;5076477;28;20809;-45
2021/12/15 04:33:57;;;;;;;8.63;7.73;;;8.60;93.20;;;;;;5076755;28;20435;-45
2021/12/15 04:36:26;;;;;;;9.80;8.20;;;8.60;93.20;;;;;;5077388;28;20419;-45
2021/12/15 04:38:53;;;;;;;9.30;8.30;;;8.60;93.20;;;;;;5077803;28;20431;-45
2021/12/15 04:41:20;;;;;;;9.33;8.30;;;8.70;93.30;;;;;;5077495;28;20427;-45
2021/12/15 04:43:56;;;;;;;9.03;7.90;;;8.60;93.20;;;;;;5077216;28;20846;-45
2021/12/15 04:46:22;;;;;;;10.30;9.23;;;8.60;93.20;;;;;;5077476;28;20427;-45
2021/12/15 04:48:48;;;;;;;9.27;8.33;;;8.60;93.30;;;;;;5077031;28;20471;-45
2021/12/15 04:51:14;;;;;;;10.20;9.00;;;8.60;93.30;;;;;;5077558;28;20423;-45
2021/12/15 04:53:39;;;;;;;8.20;7.40;;;8.60;93.40;;;;;;5076954;28;20181;-45
2021/12/15 04:56:06;;;;;;;10.63;8.60;;;8.60;93.40;;;;;;5075446;28;20510;-45
2021/12/15 04:58:32;;;;;;;10.80;8.33;;;8.60;93.40;;;;;;5079652;28;20188;-45
2021/12/15 05:00:59;;;;;;;8.97;8.07;;;8.60;93.40;;;;;;5078730;28;20423;-45
2021/12/15 05:03:26;;;;;;;10.20;8.60;;;8.60;93.40;;;;;;5078159;28;20494;-48
2021/12/15 05:05:52;;;;;;;9.00;8.10;;;8.60;93.70;;;;;;5078679;28;20437;-48
2021/12/15 05:08:19;;;;;;;9.23;7.57;;;8.60;93.40;;;;;;5078301;28;20709;-48
2021/12/15 05:10:45;;;;;;;9.67;8.67;;;8.60;93.80;;;;;;5078414;28;20477;-48
2021/12/15 05:13:11;;;;;;;10.50;8.50;;;8.60;93.50;;;;;;5079900;28;20522;-48
2021/12/15 05:15:37;;;;;;;8.77;7.90;;;8.60;93.50;;;;;;5078768;28;20434;-48
2021/12/15 05:18:04;;;;;;;9.63;8.60;;;8.60;93.50;;;;;;5077347;28;20713;-48
2021/12/15 05:20:33;;;;;;;9.00;8.10;;;8.60;93.40;;;;;;5079071;28;20431;-48
2021/12/15 05:23:01;;;;;;;9.43;8.43;;;8.60;93.40;;;;;;5078785;28;20495;-48
2021/12/15 05:25:27;;;;;;;9.27;8.37;;;8.60;93.40;;;;;;5078621;28;20434;-48
2021/12/15 05:27:52;;;;;;;9.30;8.40;;;8.60;93.50;;;;;;5075824;28;20429;-48
2021/12/15 05:30:19;;;;;;;14.93;8.60;;;8.60;93.50;;;;;;5076596;28;20238;-48
2021/12/15 05:32:47;;;;;;;8.67;7.77;;;8.60;93.50;;;;;;5077545;28;20211;-48
2021/12/15 05:35:20;;;;;;;9.13;7.87;;;8.60;93.40;;;;;;5078331;28;20423;-48
2021/12/15 05:37:47;;;;;;;9.00;7.70;;;8.60;93.40;;;;;;5076992;28;20720;-48
2021/12/15 05:40:13;;;;;;;8.63;7.73;;;8.60;93.30;;;;;;5078125;28;20435;-48
2021/12/15 05:42:39;;;;;;;10.30;6.57;;;8.60;93.30;;;;;;5078172;28;20718;-48
2021/12/15 05:45:06;;;;;;;7.60;6.80;;;8.60;93.30;;;;;;5078361;28;20180;-48
2021/12/15 05:47:32;;;;;;;7.20;6.50;;;8.50;93.30;;;;;;5080237;28;20488;-47
2021/12/15 05:49:58;;;;;;;7.47;6.73;;;8.50;93.30;;;;;;5080029;28;20471;-48
2021/12/15 05:52:30;;;;;;;8.07;7.13;;;8.50;93.40;;;;;;5080155;28;20686;-48
2021/12/15 05:54:56;;;;;;;7.90;7.10;;;8.50;93.40;;;;;;5080095;28;20264;-48
2021/12/15 05:57:22;;;;;;;7.30;6.60;;;8.50;93.30;;;;;;5079435;28;20434;-48
2021/12/15 05:59:48;;;;;;;6.23;5.63;;;8.50;93.30;;;;;;5079059;28;20427;-48
2021/12/15 06:02:14;;;;;;;6.53;5.87;;;8.50;93.30;;;;;;5076841;28;20233;-48
2021/12/15 06:04:39;;;;;;;6.83;6.13;;;8.50;93.30;;;;;;5077569;28;20181;-48
2021/12/15 06:07:05;;;;;;;6.57;5.87;;;8.50;93.30;;;;;;5082366;28;20181;-48
2021/12/15 06:09:31;;;;;;;7.17;6.43;;;8.50;93.20;;;;;;5093500;28;20204;-48
2021/12/15 06:11:57;;;;;;;7.20;6.50;;;8.50;93.30;;;;;;5097180;28;20219;-48
2021/12/15 06:14:24;;;;;;;7.17;6.47;;;8.50;93.20;;;;;;5094711;28;20418;-48
2021/12/15 06:17:03;;;;;;;5.80;5.20;;;8.50;93.20;;;;;;5091786;28;20405;-48
2021/12/15 06:19:29;;;;;;;6.70;6.00;;;8.50;93.30;;;;;;5091895;28;20422;-48
2021/12/15 06:21:55;;;;;;;5.97;5.37;;;8.50;93.30;;;;;;5094098;28;20434;-48
2021/12/15 06:24:21;;;;;;;6.30;5.20;;;8.50;93.30;;;;;;5094823;28;20666;-48
2021/12/15 06:26:47;;;;;;;5.90;5.30;;;8.50;93.30;;;;;;5094161;28;20503;-48
2021/12/15 06:29:12;;;;;;;6.60;5.47;;;8.50;93.30;;;;;;5090958;28;20480;-48
2021/12/15 06:31:41;;;;;;;7.37;5.83;;;8.50;93.30;;;;;;5088711;28;20525;-48
2021/12/15 06:34:06;;;;;;;6.30;5.20;;;8.40;93.20;;;;;;5092321;28;20222;-48
2021/12/15 06:36:33;;;;;;;6.23;5.63;;;8.40;93.20;;;;;;5094841;28;20443;-48
2021/12/15 06:39:00;;;;;;;5.97;5.30;;;8.40;93.20;;;;;;5095052;28;20188;-48
2021/12/15 06:41:25;;;;;;;5.63;5.03;;;8.50;93.30;;;;;;5095740;28;20491;-48
2021/12/15 06:43:55;;;;;;;5.60;5.10;;;8.50;93.30;;;;;;5095843;28;20743;-48
2021/12/15 06:59:58;;;;;;;5.60;5.10;;;8.50;93.20;;;;;;5093039;28;20526;-48
2021/12/15 07:02:25;;;;;;;5.80;5.30;;;8.50;93.20;;;;;;5089222;28;20788;-48
2021/12/15 07:04:51;;;;;;;6.53;5.93;;;8.40;93.20;;;;;;5079300;28;21020;-48
2021/12/15 07:07:17;;;;;;;6.00;5.33;;;8.50;93.20;;;;;;5072018;28;20415;-48
2021/12/15 07:09:43;;;;;;;5.87;5.33;;;8.50;93.30;;;;;;5073050;28;20625;-48
2021/12/15 07:12:09;;;;;;;6.10;5.50;;;8.50;93.20;;;;;;5073109;28;20488;-48
2021/12/15 07:14:35;;;;;;;7.10;6.40;;;8.50;93.30;;;;;;5073248;28;20440;-48
2021/12/15 07:17:08;;;;;;;6.67;6.00;;;8.50;93.30;;;;;;5075198;28;20424;-47
2021/12/15 07:19:51;;;;;;;6.83;6.13;;;8.50;93.20;;;;;;5074494;28;20426;-48
2021/12/15 07:22:30;;;;;;;6.80;6.10;;;8.50;93.20;;;;;;5074396;28;20434;-48
2021/12/15 07:24:56;;;;;;;6.63;5.93;;;8.50;93.20;;;;;;5074119;28;20533;-48
2021/12/15 07:27:22;;;;;;;6.90;6.00;;;8.50;93.20;;;;;;5071997;28;20462;-47
2021/12/15 07:29:47;;;;;;;6.90;6.23;;;8.50;93.20;;;;;;5072428;28;20784;-48
2021/12/15 07:32:13;;;;;;;6.63;6.03;;;8.50;93.20;;;;;;5079521;28;20240;-48
2021/12/15 07:34:39;;;;;;;7.37;6.67;;;8.50;93.20;;;;;;5093253;28;20637;-48
2021/12/15 07:37:04;;;;;;;6.70;6.10;;;8.50;93.20;;;;;;5093228;28;20186;-48
2021/12/15 07:39:30;;;;;;;6.73;6.00;;;8.50;93.20;;;;;;5094451;28;20212;-48
2021/12/15 07:42:05;;;;;;;6.70;5.93;;;8.50;93.20;;;;;;5093645;28;20588;-48
2021/12/15 07:44:32;;;;;;;7.17;6.40;;;8.50;93.20;;;;;;5093913;28;20186;-48
2021/12/15 07:46:58;;;;;;;7.33;6.57;;;8.50;93.20;;;;;;5091497;28;20484;-48
2021/12/15 07:49:25;;;;;;;7.40;6.47;;;8.50;93.20;;;;;;5092218;28;20455;-47
2021/12/15 07:51:59;;;;;;;6.30;5.70;;;8.50;93.20;;;;;;5091344;28;20657;-48
2021/12/15 07:54:25;;;;;;;7.07;6.37;;;8.50;93.20;;;;;;5092979;28;20420;-47
2021/12/15 07:56:51;;;;;;;8.93;7.00;;;8.50;93.20;;;;;;5093915;28;20417;-48
2021/12/15 07:59:17;;;;;;;6.10;5.50;;;8.50;93.10;;;;;;5094086;28;20417;-48
2021/12/15 08:01:43;;;;;;;8.30;6.80;;;8.50;93.10;;;;;;5096269;28;20251;-47
2021/12/15 08:04:08;;;;;;;8.00;7.20;;;8.50;93.10;;;;;;5095660;28;20522;-48
2021/12/15 08:06:34;;;;;;;7.77;6.97;;;8.50;93.10;;;;;;5096849;28;20227;-46
2021/12/15 08:09:00;;;;;;;8.27;7.47;;;8.50;93.10;;;;;;5097943;28;20196;-48
2021/12/15 08:11:25;;;;;;;7.20;6.50;;;8.50;93.10;;;;;;5096469;28;20239;-48
2021/12/15 08:13:51;;;;;;;8.73;7.37;;;8.50;93.20;;;;;;5096069;28;20177;-48
2021/12/15 08:16:19;;;;;;;8.03;7.23;;;8.50;93.20;;;;;;5095794;28;20175;-47
2021/12/15 08:18:46;;;;;;;7.80;6.60;;;8.50;93.20;;;;;;5093632;28;20687;-47
2021/12/15 08:21:12;;;;;;;10.67;8.90;;;8.50;93.20;;;;;;5092083;28;20438;-47
2021/12/15 08:23:37;;;;;;;9.20;8.07;;;8.50;93.20;;;;;;5094309;28;20469;-48
2021/12/15 08:26:04;;;;;;;8.90;8.00;;;8.50;93.20;;;;;;5094373;28;20521;-48
2021/12/15 08:28:30;;;;;;;10.10;9.10;;;8.50;93.20;;;;;;5093261;28;20682;-48
2021/12/15 08:30:59;;;;;;;10.40;9.27;;;8.50;93.10;;;;;;5092430;28;20587;-48
2021/12/15 08:33:26;;;;;;;10.17;8.83;;;8.50;93.10;;;;;;5093853;28;20186;-48
2021/12/15 08:36:01;;;;;;;10.83;8.93;;;8.50;93.10;;;;;;5092886;28;20440;-48
2021/12/15 08:38:28;;;;;;;10.53;9.13;;;8.50;93.10;;;;;;5093541;28;20416;-48
2021/12/15 08:40:55;;;;;;;11.40;9.53;;;8.50;93.10;;;;;;5094906;28;20513;-48
2021/12/15 08:43:21;;;;;;;11.00;9.80;;;8.50;93.10;;;;;;5094544;28;20421;-48
2021/12/15 08:46:04;;;;;;;11.40;9.73;;;8.50;93.00;;;;;;5095296;28;20407;-48
2021/12/15 08:48:30;;;;;;;10.40;9.07;;;8.50;93.10;;;;;;5094571;28;20451;-48
2021/12/15 08:54:20;;;;;;;9.70;8.70;;;8.50;93.10;;;;;;5095991;28;20402;-49
2021/12/15 08:56:47;;;;;;;10.47;8.80;;;8.50;93.00;;;;;;5095371;28;20844;-47
2021/12/15 08:59:14;;;;;;;9.57;8.57;;;8.50;93.00;;;;;;5095562;28;20480;-47
2021/12/15 09:01:41;;;;;;;11.60;9.87;;;8.50;92.90;;;;;;5096562;28;20410;-48
2021/12/15 09:04:07;;;;;;;8.60;7.70;;;8.50;92.90;;;;;;5096377;28;20708;-47
2021/12/15 09:06:35;;;;;;;9.10;8.20;;;8.50;92.90;;;;;;5095020;28;20437;-47
2021/12/15 09:09:03;;;;;;;10.50;8.17;;;8.50;93.20;;;;;;5093248;28;20503;-47
2021/12/15 09:11:28;;;;;;;9.97;7.80;;;8.50;92.80;;;;;;5092462;28;20447;-47
2021/12/15 09:13:57;;;;;;;8.30;7.30;;;8.50;92.80;;;;;;5093844;28;20464;-47
2021/12/15 09:16:23;;;;;;;8.47;7.57;;;8.50;92.70;;;;;;5093286;28;20175;-47
2021/12/15 09:18:55;;;;;;;7.60;6.80;;;8.50;92.60;;;;;;5088430;28;20454;-47
2021/12/15 09:21:22;;;;;;;7.27;6.57;;;8.50;92.60;;;;;;5074894;28;20949;-47
2021/12/15 09:23:48;;;;;;;8.27;6.80;;;8.50;92.60;;;;;;5074710;28;20524;-47
2021/12/15 09:26:15;;;;;;;7.40;6.60;;;8.50;92.60;;;;;;5073396;28;20419;-48
2021/12/15 09:28:40;;;;;;;8.30;6.70;;;8.50;92.50;;;;;;5072692;28;20456;-48
2021/12/15 09:31:08;;;;;;;7.40;6.23;;;8.50;92.50;;;;;;5072696;28;20890;-47
2021/12/15 09:33:35;;;;;;;7.10;6.40;;;8.40;92.30;;;;;;5073220;28;20244;-47
2021/12/15 09:36:02;;;;;;;6.90;6.20;;;8.40;92.40;;;;;;5072899;28;20423;-48
2021/12/15 09:38:28;;;;;;;8.17;6.13;;;8.40;92.40;;;;;;5073658;28;20424;-47
2021/12/15 09:40:59;;;;;;;5.77;5.17;;;8.40;92.40;;;;;;5072593;28;20423;-47
2021/12/15 09:43:27;;;;;;;4.53;4.13;;;8.40;92.40;;;;;;5074561;28;20233;-47
2021/12/15 10:02:54;;;;;;;3.67;3.37;;;8.70;92.10;;;;;;5078223;28;20432;-46
2021/12/15 10:05:33;;;;;;;7.00;5.97;;;8.70;92.00;;;;;;5077205;28;20424;-48
2021/12/15 10:19:38;;;;;;;5.30;4.80;;;8.80;91.60;;;;;;5075706;28;20580;-48
2021/12/15 10:22:30;;;;;;;4.10;3.67;;;8.80;91.50;;;;;;5075681;28;20841;-48
2021/12/15 10:25:02;;;;;;;3.93;2.80;;;8.80;91.50;;;;;;5077134;28;20824;-42
2021/12/15 10:27:36;;;;;;;2.70;2.30;;;8.90;93.60;;;;;;5079012;28;20464;-45
2021/12/15 10:30:14;;;;;;;3.00;2.40;;;9.60;99.40;;;;;;5077876;28;20586;-43
2021/12/15 10:32:42;;;;;;;3.70;2.60;;;10.40;99.90;;;;;;5077440;28;20527;-41
2021/12/15 10:35:09;;;;;;;4.90;2.43;;;11.10;99.40;;;;;;5076298;28;20712;-43
2021/12/15 10:37:36;;;;;;;2.83;2.30;;;11.70;98.40;;;;;;5075981;28;20423;-43
2021/12/15 10:40:14;;;;;;;2.63;2.13;;;12.30;97.00;;;;;;5075256;28;20833;-44
2021/12/15 10:42:40;;;;;;;3.90;1.90;;;12.80;95.70;;;;;;5074426;28;20427;-46
2021/12/15 10:45:10;;;;;;;3.10;2.13;;;13.20;94.70;;;;;;5075725;28;20794;-43
2021/12/15 10:47:44;;;;;;;2.80;2.50;;;13.50;93.90;;;;;;5076014;28;20176;-42
2021/12/15 10:50:17;;;;;;;2.57;2.00;;;13.80;93.10;;;;;;5075597;28;20460;-43
2021/12/15 10:52:56;;;;;;;2.20;2.00;;;14.00;92.30;;;;;;5075209;28;20889;-43
2021/12/15 10:55:30;;;;;;;2.23;1.70;;;14.20;91.80;;;;;;5075645;28;20411;-44
2021/12/15 10:57:56;;;;;;;2.30;2.10;;;14.40;91.30;;;;;;5074306;28;20433;-43
2021/12/15 11:00:24;;;;;;;3.00;2.43;;;14.60;90.90;;;;;;5075496;28;20415;-43
2021/12/15 11:02:50;;;;;;;2.43;2.10;;;14.70;90.30;;;;;;5074155;28;20536;-43
2021/12/15 11:05:21;;;;;;;2.20;2.00;;;14.80;89.80;;;;;;5077164;28;20509;-42
2021/12/15 11:07:56;;;;;;;6.13;2.60;;;14.90;89.10;;;;;;5076354;28;20470;-43
2021/12/15 11:10:31;;;;;;;6.93;2.63;;;14.90;87.60;;;;;;5074290;28;20469;-41
2021/12/15 11:13:01;;;;;;;14.93;2.87;;;14.90;87.40;;;;;;5073169;28;20426;-46
2021/12/15 11:15:39;;;;;;;8.10;2.37;;;15.00;87.30;;;;;;5076532;28;20702;-46
2021/12/15 11:18:16;;;;;;;4.80;2.60;;;15.10;86.90;;;;;;5074428;28;20655;-42
2021/12/15 11:20:52;;;;;;;6.57;2.30;;;15.20;86.30;;;;;;5075445;28;20422;-44
2021/12/15 11:23:23;;;;;;;3.13;2.40;;;15.30;85.60;;;;;;5074349;28;20425;-43
2021/12/15 11:25:54;;;;;;;4.73;4.00;;;15.30;83.50;;;;;;5073502;28;20416;-46
2021/12/15 11:28:22;;;;;;;5.27;3.53;;;15.00;80.00;;;;;;5070707;28;20423;-42
2021/12/15 11:31:25;;;;;;;4.30;3.90;;;14.60;77.10;;;;;;5073130;28;20653;-42
2021/12/15 11:33:54;;;;;;;4.50;4.10;;;14.00;75.80;;;;;;5070781;28;20440;-41
2021/12/15 11:36:32;;;;;;;4.73;4.20;;;13.40;75.30;;;;;;5074937;28;20599;-41
2021/12/15 11:39:16;;;;;;;4.53;3.70;;;12.90;75.40;;;;;;5074176;28;20529;-41
2021/12/15 11:41:46;;;;;;;4.43;4.03;;;12.50;76.00;;;;;;5075801;28;20464;-42
2021/12/15 11:44:13;;;;;;;5.90;5.30;;;12.10;76.60;;;;;;5075286;28;20922;-41
2021/12/15 11:46:42;;;;;;;5.87;5.07;;;11.90;77.20;;;;;;5075863;28;20462;-39
2021/12/15 11:49:13;;;;;;;6.07;4.30;;;11.60;77.40;;;;;;5077206;28;20465;-44
2021/12/15 11:51:49;;;;;;;5.40;4.90;;;11.40;77.90;;;;;;5076364;28;20418;-42
2021/12/15 11:54:24;;;;;;;5.70;4.83;;;11.10;78.30;;;;;;5074855;28;20467;-42
2021/12/15 11:56:53;;;;;;;5.13;4.63;;;11.00;78.60;;;;;;5075792;28;20498;-43
2021/12/15 11:59:33;;;;;;;4.73;4.23;;;10.80;78.90;;;;;;5091836;28;20895;-42
2021/12/15 12:02:08;;;;;;;5.67;5.03;;;10.60;79.40;;;;;;5075839;28;20415;-40
2021/12/15 12:04:46;;;;;;;4.93;4.20;;;10.50;80.00;;;;;;5074547;28;20427;-40
2021/12/15 12:07:24;;;;;;;4.80;4.30;;;10.40;80.30;;;;;;5073235;28;20423;-41
2021/12/15 12:10:21;;;;;;;4.33;3.87;;;10.40;80.80;;;;;;5079822;28;20461;-41
2021/12/15 12:12:54;;;;;;;5.70;4.60;;;10.30;81.00;;;;;;5048505;28;20445;-42
2021/12/15 12:15:28;;;;;;;5.60;4.20;;;10.10;80.70;;;;;;5084815;28;20431;-40
2021/12/15 12:18:08;;;;;;;4.20;3.80;;;10.10;81.00;;;;;;5083342;28;20457;-42
2021/12/15 12:20:43;;;;;;;4.23;3.83;;;10.00;81.50;;;;;;5080008;28;20461;-40
2021/12/15 12:23:12;;;;;;;4.83;4.27;;;10.00;81.90;;;;;;5050191;28;20919;-42
2021/12/15 12:25:47;;;;;;;4.33;3.50;;;9.90;83.30;;;;;;5073756;28;20426;-41
2021/12/15 12:28:19;;;;;;;4.90;4.43;;;9.80;83.40;;;;;;5077135;28;20499;-39
2021/12/15 12:30:48;;;;;;;4.70;4.07;;;9.80;83.70;;;;;;5077349;28;20473;-40
2021/12/15 12:33:15;;;;;;;5.90;4.50;;;9.80;84.00;;;;;;5094248;28;20415;-39
2021/12/15 12:35:53;;;;;;;5.00;4.50;;;9.80;84.30;;;;;;5094949;28;20405;-42
2021/12/15 12:38:28;;;;;;;4.90;3.90;;;9.80;84.50;;;;;;5094246;28;20409;-41
2021/12/15 12:41:11;;;;;;;5.53;4.77;;;9.80;84.60;;;;;;5093382;28;20419;-41
2021/12/15 12:43:58;;;;;;;5.77;5.17;;;9.70;84.40;;;;;;5093297;28;20418;-41
2021/12/15 12:46:51;;;;;;;4.70;4.20;;;9.70;84.30;;;;;;5082281;28;20632;-40
2021/12/15 12:59:23;;;;;;;5.90;4.20;;;9.50;85.30;;;;;;5092773;28;20418;-41
2021/12/15 13:01:01;;;;;;;5.30;4.80;;;9.50;85.50;;;;;;5092243;28;20434;-41
2021/12/15 13:03:34;;;;;;;6.63;5.77;;;9.40;85.40;;;;;;5093166;28;20439;-42
2021/12/15 13:06:07;;;;;;;5.00;4.50;;;9.40;85.60;;;;;;5092545;28;20949;-41
2021/12/15 13:08:54;;;;;;;5.87;4.80;;;9.40;85.80;;;;;;5092716;28;20465;-41
2021/12/15 13:11:21;;;;;;;5.40;4.90;;;9.30;86.00;;;;;;5092954;28;20425;-40
2021/12/15 13:14:04;;;;;;;7.13;5.17;;;9.30;86.20;;;;;;5093098;28;20430;-41
2021/12/15 13:16:53;;;;;;;5.47;4.57;;;9.30;86.30;;;;;;5095244;28;20502;-42
2021/12/15 13:19:28;;;;;;;5.27;4.77;;;9.20;86.40;;;;;;5098357;28;20843;-41
2021/12/15 13:30:53;;;;;;;8.43;6.53;;;9.10;86.50;;;;;;5098642;28;20589;-40
2021/12/15 13:33:49;;;;;;;6.20;5.60;;;9.00;86.90;;;;;;5099409;28;20820;-39
2021/12/15 13:36:25;;;;;;;6.80;5.93;;;8.90;87.20;;;;;;5096093;28;20479;-43
2021/12/15 13:39:03;;;;;;;6.40;5.73;;;8.80;87.60;;;;;;5096378;28;20407;-41
2021/12/15 13:44:37;;;;;;;7.23;5.63;;;8.80;88.20;;;;;;5095376;28;20425;-41
2021/12/15 13:47:09;;;;;;;6.10;5.50;;;8.80;88.40;;;;;;5095250;28;20415;-39
2021/12/15 13:49:48;;;;;;;6.03;5.00;;;8.80;88.50;;;;;;5096535;28;20469;-43
2021/12/15 13:52:34;;;;;;;7.03;6.23;;;8.80;88.60;;;;;;5079005;28;20442;-43
2021/12/15 13:55:11;;;;;;;5.87;5.07;;;8.80;88.60;;;;;;5078238;28;20751;-41
2021/12/15 13:58:10;;;;;;;6.73;5.90;;;8.80;88.70;;;;;;5078458;28;20478;-41
2021/12/15 14:00:58;;;;;;;6.97;6.03;;;8.80;88.70;;;;;;5077804;28;20449;-42
2021/12/15 14:03:30;;;;;;;6.17;5.57;;;8.80;89.40;;;;;;5076521;28;20477;-40
2021/12/15 14:05:59;;;;;;;7.37;5.57;;;8.80;88.90;;;;;;5076046;28;20419;-41
2021/12/15 14:08:46;;;;;;;6.30;5.37;;;8.70;88.90;;;;;;5073833;28;20451;-40
2021/12/15 14:11:19;;;;;;;5.73;5.23;;;8.80;89.20;;;;;;5058070;28;20457;-41
2021/12/15 14:13:51;;;;;;;6.63;5.93;;;8.70;89.10;;;;;;5077361;28;20434;-40
2021/12/15 14:16:42;;;;;;;6.23;5.63;;;8.70;89.20;;;;;;5076991;28;20473;-41
2021/12/15 14:19:14;;;;;;;7.50;6.43;;;8.70;89.20;;;;;;5084828;28;20410;-40
2021/12/15 14:21:40;;;;;;;9.03;7.37;;;8.70;89.30;;;;;;5091932;28;20437;-44
2021/12/15 14:24:08;;;;;;;8.20;7.10;;;8.70;89.30;;;;;;5090395;28;20817;-41
2021/12/15 14:26:36;;;;;;;8.10;7.23;;;8.60;89.40;;;;;;5089733;28;20761;-42
2021/12/15 14:29:15;;;;;;;7.80;7.00;;;8.60;89.60;;;;;;5087684;28;20739;-40
2021/12/15 14:31:43;;;;;;;8.30;6.33;;;8.50;89.80;;;;;;5086767;28;20431;-41
2021/12/15 14:34:20;;;;;;;9.10;8.00;;;8.50;90.00;;;;;;5085161;28;20424;-41
2021/12/15 14:36:57;;;;;;;9.03;7.97;;;8.50;90.10;;;;;;5082797;28;20443;-41
2021/12/15 14:39:38;;;;;;;7.63;6.93;;;8.40;90.10;;;;;;5084625;28;20421;-40
2021/12/15 14:42:07;;;;;;;7.80;7.00;;;8.40;90.20;;;;;;5085046;28;20483;-41
2021/12/15 14:44:38;;;;;;;7.53;6.70;;;8.30;90.30;;;;;;5086457;28;20431;-41
2021/12/15 14:47:11;;;;;;;7.90;7.10;;;8.20;90.50;;;;;;5083442;28;20422;-38
2021/12/15 14:49:45;;;;;;;8.67;7.37;;;8.20;90.60;;;;;;5085661;28;20978;-39